createdAt,value
2023-05-22T00:00:21.814Z,28.50
2023-05-22T00:02:50.901Z,28.50
2023-05-22T00:05:20.470Z,28.50
2023-05-22T00:07:49.010Z,28.50
2023-05-22T00:10:17.097Z,28.50
2023-05-22T00:12:45.457Z,28.50
2023-05-22T00:15:13.549Z,28.40
2023-05-22T00:17:44.624Z,28.50
2023-05-22T00:20:13.368Z,28.40
2023-05-22T00:22:41.388Z,28.40
2023-05-22T00:25:11.344Z,28.40
2023-05-22T00:27:39.870Z,28.40
2023-05-22T00:30:10.648Z,28.40
2023-05-22T00:32:39.146Z,28.40
2023-05-22T00:35:10.431Z,28.40
2023-05-22T00:37:38.840Z,28.40
2023-05-22T00:40:08.691Z,28.40
2023-05-22T00:42:37.140Z,28.40
2023-05-22T00:45:06.653Z,28.40
2023-05-22T00:47:35.105Z,28.40
2023-05-22T00:50:03.406Z,28.30
2023-05-22T00:52:33.482Z,28.30
2023-05-22T00:55:01.501Z,28.30
2023-05-22T00:57:30.081Z,28.30
2023-05-22T00:59:58.814Z,28.30
2023-05-22T01:02:28.295Z,28.30
2023-05-22T01:04:58.144Z,28.30
2023-05-22T01:07:26.104Z,28.30
2023-05-22T01:09:56.308Z,28.30
2023-05-22T01:12:27.788Z,28.30
2023-05-22T01:15:00.182Z,28.30
2023-05-22T01:17:35.145Z,28.20
2023-05-22T01:20:10.018Z,28.30
2023-05-22T01:23:16.559Z,28.30
2023-05-22T01:26:14.961Z,28.20
2023-05-22T01:28:53.176Z,28.20
2023-05-22T01:31:23.409Z,28.20
2023-05-22T01:33:52.751Z,28.20
2023-05-22T01:36:23.292Z,28.20
2023-05-22T01:38:51.384Z,28.20
2023-05-22T01:41:19.600Z,28.10
2023-05-22T01:43:47.547Z,28.10
2023-05-22T01:46:15.987Z,28.10
2023-05-22T01:48:45.658Z,28.10
2023-05-22T01:51:16.699Z,28.10
2023-05-22T01:53:47.224Z,28.10
2023-05-22T01:56:17.314Z,28.10
2023-05-22T01:58:48.570Z,28.10
2023-05-22T02:01:16.737Z,28.10
2023-05-22T02:03:46.435Z,28.00
2023-05-22T02:06:15.147Z,28.10
2023-05-22T02:08:43.235Z,28.10
2023-05-22T02:11:11.695Z,28.00
2023-05-22T02:13:39.746Z,28.00
2023-05-22T02:16:08.221Z,28.00
2023-05-22T02:18:36.353Z,28.00
2023-05-22T02:21:09.089Z,28.00
2023-05-22T02:23:37.967Z,28.00
2023-05-22T02:26:06.792Z,28.00
2023-05-22T02:28:34.862Z,27.90
2023-05-22T02:31:04.546Z,28.00
2023-05-22T02:33:32.655Z,27.90
2023-05-22T02:36:00.621Z,27.90
2023-05-22T02:38:30.349Z,27.90
2023-05-22T02:40:58.404Z,27.90
2023-05-22T02:43:26.842Z,27.90
2023-05-22T02:45:54.856Z,27.90
2023-05-22T02:48:23.182Z,27.90
2023-05-22T02:50:51.240Z,27.90
2023-05-22T02:53:19.743Z,27.90
2023-05-22T02:55:49.215Z,27.90
2023-05-22T02:58:18.301Z,27.90
2023-05-22T03:00:46.372Z,27.90
2023-05-22T03:03:14.992Z,27.90
2023-05-22T03:05:43.349Z,27.80
2023-05-22T03:08:11.727Z,27.80
2023-05-22T03:10:39.887Z,27.80
2023-05-22T03:13:09.598Z,27.80
2023-05-22T03:15:37.753Z,27.80
2023-05-22T03:18:06.254Z,27.80
2023-05-22T03:20:34.345Z,27.80
2023-05-22T03:23:02.750Z,27.80
2023-05-22T03:25:30.884Z,27.80
2023-05-22T03:27:59.001Z,27.80
2023-05-22T03:30:28.733Z,27.80
2023-05-22T03:32:56.925Z,27.80
2023-05-22T03:35:25.747Z,27.80
2023-05-22T03:37:54.332Z,27.80
2023-05-22T03:40:23.317Z,27.80
2023-05-22T03:42:51.408Z,27.70
2023-05-22T03:45:19.717Z,27.80
2023-05-22T03:47:49.435Z,27.70
2023-05-22T03:50:17.496Z,27.80
2023-05-22T03:52:46.044Z,27.70
2023-05-22T03:55:14.122Z,27.70
2023-05-22T03:57:42.294Z,27.70
2023-05-22T04:00:12.020Z,27.70
2023-05-22T04:02:40.128Z,27.70
2023-05-22T04:05:11.366Z,27.70
2023-05-22T04:07:39.703Z,27.70
2023-05-22T04:10:08.678Z,27.70
2023-05-22T04:12:36.944Z,27.70
2023-05-22T04:15:05.676Z,27.70
2023-05-22T04:17:33.737Z,27.70
2023-05-22T04:20:02.350Z,27.70
2023-05-22T04:22:31.873Z,27.70
2023-05-22T04:25:00.513Z,27.70
2023-05-22T04:27:30.029Z,27.70
2023-05-22T04:30:00.360Z,27.70
2023-05-22T04:32:29.920Z,27.70
2023-05-22T04:35:00.944Z,27.70
2023-05-22T04:37:31.897Z,27.70
2023-05-22T04:40:03.354Z,27.70
2023-05-22T04:42:31.650Z,27.70
2023-05-22T04:45:00.053Z,27.70
2023-05-22T04:47:29.012Z,27.70
2023-05-22T04:49:57.788Z,27.70
2023-05-22T04:52:25.744Z,27.70
2023-05-22T04:54:54.601Z,27.70
2023-05-22T04:57:25.629Z,27.60
2023-05-22T04:59:54.476Z,27.70
2023-05-22T05:02:22.488Z,27.60
2023-05-22T05:04:50.756Z,27.70
2023-05-22T05:07:18.828Z,27.60
2023-05-22T05:09:46.946Z,27.70
2023-05-22T05:12:15.137Z,27.70
2023-05-22T05:14:44.701Z,27.70
2023-05-22T05:17:12.733Z,27.70
2023-05-22T05:19:41.075Z,27.70
2023-05-22T05:22:09.249Z,27.70
2023-05-22T05:24:37.251Z,27.70
2023-05-22T05:27:05.776Z,27.70
2023-05-22T05:29:33.896Z,27.70
2023-05-22T05:32:04.451Z,27.70
2023-05-22T05:34:32.451Z,27.70
2023-05-22T05:37:00.892Z,27.80
2023-05-22T05:39:29.026Z,27.70
2023-05-22T05:41:57.407Z,27.70
2023-05-22T05:44:25.816Z,27.80
2023-05-22T05:46:54.228Z,27.70
2023-05-22T05:49:23.664Z,27.70
2023-05-22T05:51:52.001Z,27.70
2023-05-22T05:54:19.946Z,27.70
2023-05-22T05:56:48.282Z,27.70
2023-05-22T05:59:16.374Z,27.70
2023-05-22T06:01:46.379Z,27.70
2023-05-22T06:04:14.460Z,27.70
2023-05-22T06:06:44.552Z,27.70
2023-05-22T06:09:12.719Z,27.70
2023-05-22T06:11:40.819Z,27.70
2023-05-22T06:14:10.437Z,27.70
2023-05-22T06:16:38.531Z,27.70
2023-05-22T06:19:07.009Z,27.60
2023-05-22T06:21:35.074Z,27.60
2023-05-22T06:24:04.984Z,27.60
2023-05-22T06:26:33.553Z,27.60
2023-05-22T06:29:01.660Z,27.60
2023-05-22T06:31:29.616Z,27.60
2023-05-22T06:33:57.610Z,27.50
2023-05-22T06:36:25.722Z,27.50
2023-05-22T06:38:55.444Z,27.50
2023-05-22T06:41:26.269Z,27.50
2023-05-22T06:43:54.746Z,27.50
2023-05-22T06:46:25.974Z,27.50
2023-05-22T06:48:54.393Z,27.50
2023-05-22T06:51:22.408Z,27.50
2023-05-22T06:53:50.434Z,27.50
2023-05-22T06:56:19.138Z,27.50
2023-05-22T06:58:48.701Z,27.50
2023-05-22T07:01:17.273Z,27.50
2023-05-22T07:03:45.406Z,27.50
2023-05-22T07:06:13.522Z,27.50
2023-05-22T07:08:41.497Z,27.50
2023-05-22T07:11:09.398Z,27.50
2023-05-22T07:13:37.425Z,27.50
2023-05-22T07:16:07.490Z,27.50
2023-05-22T07:18:35.567Z,27.40
2023-05-22T07:21:03.557Z,27.40
2023-05-22T07:23:31.632Z,27.40
2023-05-22T07:26:00.047Z,27.40
2023-05-22T07:28:28.043Z,27.40
2023-05-22T07:30:56.424Z,27.30
2023-05-22T07:33:28.439Z,27.30
2023-05-22T07:35:56.522Z,27.30
2023-05-22T07:38:25.158Z,27.40
2023-05-22T07:40:53.621Z,27.30
2023-05-22T07:43:21.862Z,27.30
2023-05-22T07:45:50.055Z,27.30
2023-05-22T07:48:18.361Z,27.30
2023-05-22T07:50:48.112Z,27.30
2023-05-22T07:53:16.580Z,27.40
2023-05-22T07:55:45.208Z,27.40
2023-05-22T07:58:14.596Z,27.40
2023-05-22T08:00:43.471Z,27.40
2023-05-22T08:03:12.395Z,27.40
2023-05-22T08:05:40.634Z,27.40
2023-05-22T08:08:10.473Z,27.40
2023-05-22T08:13:10.561Z,27.50
2023-05-22T08:15:38.643Z,27.40
2023-05-22T08:18:06.786Z,27.40
2023-05-22T08:20:35.245Z,27.40
2023-05-22T08:23:03.390Z,27.40
2023-05-22T08:25:33.153Z,27.50
2023-05-22T08:28:01.026Z,27.50
2023-05-22T08:30:29.371Z,27.50
2023-05-22T08:32:57.328Z,27.50
2023-05-22T08:35:25.511Z,27.50
2023-05-22T08:37:53.473Z,27.60
2023-05-22T08:40:21.799Z,27.60
2023-05-22T08:42:54.770Z,27.70
2023-05-22T08:45:23.262Z,27.70
2023-05-22T08:47:53.900Z,27.70
2023-05-22T08:50:22.371Z,27.70
2023-05-22T08:52:52.679Z,27.70
2023-05-22T08:55:21.101Z,27.70
2023-05-22T08:57:51.198Z,27.70
2023-05-22T09:00:20.161Z,27.80
2023-05-22T09:02:48.331Z,27.80
2023-05-22T09:05:17.101Z,27.90
2023-05-22T09:07:45.930Z,27.90
2023-05-22T09:10:14.318Z,27.90
2023-05-22T09:13:05.308Z,27.90
2023-05-22T09:15:33.379Z,27.80
2023-05-22T09:18:01.272Z,27.80
2023-05-22T09:20:29.580Z,27.80
2023-05-22T09:22:57.697Z,27.80
2023-05-22T09:25:26.521Z,27.80
2023-05-22T09:27:54.467Z,27.80
2023-05-22T09:30:23.913Z,27.80
2023-05-22T09:32:52.057Z,27.80
2023-05-22T09:35:20.961Z,27.90
2023-05-22T09:37:49.049Z,27.90
2023-05-22T09:40:17.150Z,27.90
2023-05-22T09:42:48.844Z,27.90
2023-05-22T09:45:17.021Z,27.90
2023-05-22T09:47:49.839Z,27.80
2023-05-22T09:50:18.604Z,27.90
2023-05-22T09:52:46.888Z,27.90
2023-05-22T09:55:15.102Z,27.90
2023-05-22T09:57:44.803Z,28.00
2023-05-22T10:00:15.168Z,28.00
2023-05-22T10:02:44.989Z,28.00
2023-05-22T10:05:21.188Z,28.00
2023-05-22T10:07:50.367Z,28.00
2023-05-22T10:10:19.623Z,28.10
2023-05-22T10:12:51.482Z,28.10
2023-05-22T10:15:19.931Z,28.10
2023-05-22T10:17:47.849Z,28.10
2023-05-22T10:20:17.732Z,28.20
2023-05-22T10:22:45.671Z,28.10
2023-05-22T10:25:13.533Z,28.10
2023-05-22T10:27:41.627Z,28.10
2023-05-22T10:30:18.557Z,28.10
2023-05-22T10:32:47.900Z,28.10
2023-05-22T10:35:20.824Z,28.20
2023-05-22T10:37:51.486Z,28.20
2023-05-22T10:40:28.637Z,28.20
2023-05-22T10:43:00.517Z,28.20
2023-05-22T10:45:29.829Z,28.20
2023-05-22T10:48:05.175Z,28.20
2023-05-22T10:50:35.004Z,28.10
2023-05-22T10:53:22.718Z,28.10
2023-05-22T10:55:51.411Z,28.20
2023-05-22T10:58:19.795Z,28.10
2023-05-22T11:00:47.706Z,28.20
2023-05-22T11:03:18.409Z,28.20
2023-05-22T11:05:53.831Z,28.10
2023-05-22T11:08:38.158Z,28.10
2023-05-22T11:11:15.515Z,28.10
2023-05-22T11:13:43.738Z,28.20
2023-05-22T11:16:12.400Z,28.10
2023-05-22T11:18:40.371Z,28.20
2023-05-22T11:21:13.649Z,28.20
2023-05-22T11:23:41.711Z,28.20
2023-05-22T11:26:20.630Z,28.30
2023-05-22T11:28:51.643Z,28.30
2023-05-22T11:31:19.801Z,28.40
2023-05-22T11:33:48.385Z,28.50
2023-05-22T11:36:18.029Z,28.50
2023-05-22T11:38:46.360Z,28.60
2023-05-22T11:41:14.428Z,28.60
2023-05-22T11:43:43.632Z,28.60
2023-05-22T11:46:12.255Z,28.70
2023-05-22T11:48:42.067Z,28.70
2023-05-22T11:51:10.468Z,28.80
2023-05-22T11:53:39.838Z,28.80
2023-05-22T11:56:08.042Z,28.80
2023-05-22T11:58:36.148Z,28.80
2023-05-22T12:01:04.594Z,28.80
2023-05-22T12:03:32.904Z,28.80
2023-05-22T12:06:00.955Z,28.70
2023-05-22T12:08:28.844Z,28.70
2023-05-22T12:10:58.081Z,28.70
2023-05-22T12:13:26.740Z,28.70
2023-05-22T12:15:55.448Z,28.70
2023-05-22T12:22:05.931Z,28.70
2023-05-22T12:24:40.717Z,28.70
2023-05-22T12:27:13.013Z,27.90
2023-05-22T12:29:41.536Z,26.90
2023-05-22T12:32:11.041Z,26.20
2023-05-22T12:34:44.896Z,25.60
2023-05-22T12:37:22.735Z,25.40
2023-05-22T12:39:57.256Z,25.30
2023-05-22T12:42:26.815Z,25.10
2023-05-22T12:44:55.428Z,24.90
2023-05-22T12:47:23.601Z,24.90
2023-05-22T12:49:52.007Z,24.80
2023-05-22T12:52:19.955Z,24.50
2023-05-22T12:54:47.850Z,24.10
2023-05-22T12:57:16.872Z,24.60
2023-05-22T12:59:46.344Z,24.90
2023-05-22T13:02:14.412Z,25.30
2023-05-22T13:04:42.551Z,25.60
2023-05-22T13:07:10.630Z,25.70
2023-05-22T13:09:38.696Z,25.50
2023-05-22T13:12:07.405Z,25.80
2023-05-22T13:14:35.447Z,25.80
2023-05-22T13:17:04.967Z,25.90
2023-05-22T13:19:33.533Z,25.90
2023-05-22T13:22:01.638Z,26.00
2023-05-22T13:24:30.051Z,26.00
2023-05-22T13:26:58.132Z,25.80
2023-05-22T13:29:26.148Z,25.80
2023-05-22T13:31:54.140Z,26.20
2023-05-22T13:34:23.610Z,26.10
2023-05-22T13:36:51.877Z,26.10
2023-05-22T13:39:19.886Z,26.50
2023-05-22T13:41:47.934Z,26.80
2023-05-22T13:44:16.060Z,26.70
2023-05-22T13:46:44.138Z,26.40
2023-05-22T13:49:12.675Z,26.70
2023-05-22T13:51:42.017Z,26.80
2023-05-22T13:54:10.338Z,26.70
2023-05-22T13:56:38.318Z,26.80
2023-05-22T13:59:08.545Z,27.20
2023-05-22T14:01:37.444Z,27.70
2023-05-22T14:04:06.344Z,28.30
2023-05-22T14:06:34.721Z,28.70
2023-05-22T14:09:07.088Z,29.00
2023-05-22T14:11:35.457Z,29.40
2023-05-22T14:14:03.457Z,29.70
2023-05-22T14:16:31.628Z,29.90
2023-05-22T14:19:00.863Z,30.20
2023-05-22T14:21:28.958Z,30.40
2023-05-22T14:27:58.595Z,30.80
2023-05-22T14:38:01.190Z,30.80
2023-05-22T14:40:29.121Z,30.60
2023-05-22T14:42:58.812Z,30.60
2023-05-22T14:45:26.910Z,30.50
2023-05-22T14:47:55.483Z,30.50
2023-05-22T14:50:23.465Z,30.50
2023-05-22T14:52:51.961Z,30.60
2023-05-22T15:10:30.446Z,30.90
2023-05-22T15:12:58.858Z,30.90
2023-05-22T15:15:26.890Z,30.90
2023-05-22T15:17:55.608Z,30.90
2023-05-22T15:24:04.594Z,30.90
2023-05-22T15:26:34.091Z,30.90
2023-05-22T15:29:02.651Z,30.90
2023-05-22T15:31:30.581Z,30.90
2023-05-22T15:33:58.541Z,30.80
2023-05-22T15:36:27.653Z,30.80
2023-05-22T15:38:56.148Z,30.80
2023-05-22T15:41:24.037Z,30.80
2023-05-22T15:43:54.015Z,30.80
2023-05-22T15:46:22.076Z,30.70
2023-05-22T15:48:50.054Z,30.70
2023-05-22T15:51:18.111Z,30.70
2023-05-22T15:53:46.282Z,30.70
2023-05-22T15:56:14.146Z,30.60
2023-05-22T15:58:42.072Z,30.70
2023-05-22T16:01:12.224Z,30.70
2023-05-22T16:03:40.389Z,30.70
2023-05-22T16:06:08.413Z,30.70
2023-05-22T16:08:36.663Z,30.70
2023-05-22T16:11:04.552Z,30.70
2023-05-22T16:13:33.184Z,30.60
2023-05-22T16:16:01.758Z,30.70
2023-05-22T16:18:31.078Z,30.70
2023-05-22T16:20:58.961Z,30.70
2023-05-22T16:23:26.989Z,30.70
2023-05-22T16:25:54.897Z,30.70
2023-05-22T16:28:22.849Z,30.70
2023-05-22T16:30:51.165Z,30.70
2023-05-22T16:33:19.057Z,30.70
2023-05-22T16:35:48.380Z,30.70
2023-05-22T16:38:16.274Z,30.70
2023-05-22T16:40:44.147Z,30.60
2023-05-22T16:43:13.779Z,30.60
2023-05-22T16:45:46.388Z,30.60
2023-05-22T16:48:14.393Z,30.60
2023-05-22T16:50:42.497Z,30.60
2023-05-22T16:53:11.773Z,30.60
2023-05-22T16:55:39.884Z,30.50
2023-05-22T16:58:09.098Z,30.50
2023-05-22T17:00:37.655Z,30.50
2023-05-22T17:03:06.678Z,30.40
2023-05-22T17:05:35.206Z,30.50
2023-05-22T17:08:03.229Z,30.40
2023-05-22T17:10:32.595Z,30.40
2023-05-22T17:13:02.146Z,30.30
2023-05-22T17:15:31.800Z,30.30
2023-05-22T17:18:00.111Z,30.30
2023-05-22T17:20:29.507Z,30.30
2023-05-22T17:22:57.732Z,30.30
2023-05-22T17:25:25.763Z,30.30
2023-05-22T17:27:55.063Z,30.30
2023-05-22T17:30:22.985Z,30.30
2023-05-22T17:32:53.720Z,30.30
2023-05-22T17:35:21.722Z,30.30
2023-05-22T17:37:49.763Z,30.30
2023-05-22T17:40:18.264Z,30.20
2023-05-22T17:42:46.682Z,30.20
2023-05-22T17:45:16.445Z,30.20
2023-05-22T17:47:44.332Z,30.20
2023-05-22T17:50:12.805Z,30.10
2023-05-22T17:52:41.738Z,30.10
2023-05-22T17:55:10.466Z,30.00
2023-05-22T17:57:38.970Z,30.00
2023-05-22T18:00:10.094Z,30.00
2023-05-22T18:02:39.921Z,29.90
2023-05-22T18:05:09.114Z,29.80
2023-05-22T18:07:37.550Z,29.80
2023-05-22T18:10:06.328Z,29.80
2023-05-22T18:12:43.408Z,29.50
2023-05-22T18:15:12.366Z,28.60
2023-05-22T18:17:57.095Z,27.70
2023-05-22T18:20:25.342Z,27.50
2023-05-22T18:22:53.552Z,27.40
2023-05-22T18:25:21.962Z,27.20
2023-05-22T18:27:50.193Z,27.00
2023-05-22T18:30:19.264Z,27.00
2023-05-22T18:32:47.991Z,26.80
2023-05-22T18:35:18.908Z,26.80
2023-05-22T18:37:47.284Z,27.30
2023-05-22T18:40:15.616Z,27.70
2023-05-22T18:42:45.413Z,28.00
2023-05-22T18:45:14.496Z,28.10
2023-05-22T18:47:46.971Z,28.30
2023-05-22T18:50:21.106Z,28.40
2023-05-22T18:52:57.208Z,28.50
2023-05-22T18:55:25.548Z,28.50
2023-05-22T18:57:57.029Z,28.60
2023-05-22T19:00:33.079Z,28.70
2023-05-22T19:03:15.679Z,28.70
2023-05-22T19:09:25.281Z,28.70
2023-05-22T19:11:53.707Z,28.70
2023-05-22T19:14:22.686Z,28.70
2023-05-22T19:16:51.061Z,28.70
2023-05-22T19:19:19.334Z,28.80
2023-05-22T19:21:47.504Z,28.80
2023-05-22T19:24:18.290Z,28.80
2023-05-22T19:26:56.874Z,28.80
2023-05-22T19:30:16.757Z,28.80
2023-05-22T19:32:45.483Z,28.70
2023-05-22T19:35:13.834Z,28.80
2023-05-22T19:37:42.085Z,28.80
2023-05-22T19:40:11.614Z,28.70
2023-05-22T19:42:44.216Z,28.70
2023-05-22T19:45:18.244Z,28.70
2023-05-22T19:47:48.088Z,28.70
2023-05-22T19:50:20.372Z,28.70
2023-05-22T19:52:52.293Z,28.70
2023-05-22T19:55:20.720Z,28.60
2023-05-22T19:57:50.583Z,28.70
2023-05-22T20:00:19.629Z,28.70
2023-05-22T20:02:47.935Z,28.60
2023-05-22T20:05:16.410Z,28.60
2023-05-22T20:07:44.626Z,28.60
2023-05-22T20:10:12.893Z,28.60
2023-05-22T20:12:41.126Z,28.60
2023-05-22T20:15:15.473Z,28.50
2023-05-22T20:17:50.443Z,28.60
2023-05-22T20:20:18.961Z,28.50
2023-05-22T20:22:47.065Z,28.50
2023-05-22T20:25:15.379Z,28.50
2023-05-22T20:28:13.598Z,28.50
2023-05-22T20:30:47.636Z,28.40
2023-05-22T20:33:15.989Z,28.40
2023-05-22T20:35:44.510Z,28.30
2023-05-22T20:38:14.367Z,28.40
2023-05-22T20:40:46.509Z,28.30
2023-05-22T20:43:15.072Z,28.30
2023-05-22T20:45:45.869Z,28.30
2023-05-22T20:48:16.744Z,28.30
2023-05-22T20:50:48.003Z,28.30
2023-05-22T20:53:16.059Z,28.30
2023-05-22T20:55:44.162Z,28.20
2023-05-22T20:58:12.758Z,28.20
2023-05-22T21:00:42.047Z,28.20
2023-05-22T21:03:11.019Z,28.20
2023-05-22T21:05:41.029Z,28.20
2023-05-22T21:08:09.720Z,28.10
2023-05-22T21:10:40.355Z,28.10
2023-05-22T21:13:08.629Z,28.10
2023-05-22T21:15:40.025Z,28.00
2023-05-22T21:18:08.294Z,28.00
2023-05-22T21:20:40.273Z,28.00
2023-05-22T21:23:08.456Z,28.00
2023-05-22T21:25:38.406Z,28.00
2023-05-22T21:28:08.054Z,27.90
2023-05-22T21:30:36.064Z,27.90
2023-05-22T21:33:04.143Z,27.90
2023-05-22T21:35:32.247Z,27.90
2023-05-22T21:38:01.640Z,27.90
2023-05-22T21:40:29.733Z,27.90
2023-05-22T21:42:57.807Z,27.80
2023-05-22T21:45:26.098Z,27.90
2023-05-22T21:47:54.468Z,27.90
2023-05-22T21:50:22.572Z,27.80
2023-05-22T21:52:50.819Z,27.90
2023-05-22T21:55:20.782Z,27.80
2023-05-22T21:57:48.874Z,27.80
2023-05-22T22:00:17.580Z,27.80
2023-05-22T22:02:45.941Z,27.90
2023-05-22T22:05:14.057Z,27.90
2023-05-22T22:07:42.082Z,27.80
2023-05-22T22:10:10.944Z,27.80
2023-05-22T22:12:40.591Z,27.90
2023-05-22T22:15:09.767Z,27.80
2023-05-22T22:17:38.641Z,27.80
2023-05-22T22:20:08.077Z,27.80
2023-05-22T22:22:36.680Z,27.80
2023-05-22T22:25:05.012Z,27.80
2023-05-22T22:27:33.562Z,27.80
2023-05-22T22:30:02.955Z,27.70
2023-05-22T22:32:30.897Z,27.70
2023-05-22T22:34:59.178Z,27.70
2023-05-22T22:37:27.340Z,27.70
2023-05-22T22:39:55.652Z,27.70
2023-05-22T22:42:24.899Z,27.70
2023-05-22T22:44:53.444Z,27.70
2023-05-22T22:47:22.910Z,27.70
2023-05-22T22:49:52.641Z,27.60
2023-05-22T22:52:20.636Z,27.60
2023-05-22T22:54:49.003Z,27.60
2023-05-22T22:57:17.684Z,27.60
2023-05-22T22:59:45.631Z,27.60
2023-05-22T23:02:13.607Z,27.60
2023-05-22T23:04:43.005Z,27.50
2023-05-22T23:07:11.129Z,27.50
2023-05-22T23:09:40.245Z,27.50
2023-05-22T23:12:08.685Z,27.50
2023-05-22T23:14:37.997Z,27.50
2023-05-22T23:17:06.254Z,27.50
2023-05-22T23:19:34.666Z,27.50
2023-05-22T23:22:03.995Z,27.50
2023-05-22T23:24:32.390Z,27.40
2023-05-22T23:27:01.033Z,27.40
2023-05-22T23:29:29.056Z,27.40
2023-05-22T23:31:57.420Z,27.40
2023-05-22T23:34:25.690Z,27.40
2023-05-22T23:36:53.648Z,27.40
2023-05-22T23:39:22.923Z,27.40
2023-05-22T23:41:54.231Z,27.40
2023-05-22T23:44:22.218Z,27.40
2023-05-22T23:46:50.870Z,27.40
2023-05-22T23:49:18.852Z,27.40
2023-05-22T23:51:47.898Z,27.30
2023-05-22T23:54:17.229Z,27.40
2023-05-22T23:56:46.749Z,27.30
2023-05-22T23:59:15.085Z,27.30
